sensor_id;sensor_type;location;lat;lon;timestamp;temperature;humidity
74513;DHT22;62992;52.052;8.550;2023-01-28T00:01:46;1.30;99.90
74513;DHT22;62992;52.052;8.550;2023-01-28T00:04:30;1.30;99.90
74513;DHT22;62992;52.052;8.550;2023-01-28T00:07:14;1.30;99.90
74513;DHT22;62992;52.052;8.550;2023-01-28T00:09:58;1.30;99.90
74513;DHT22;62992;52.052;8.550;2023-01-28T00:12:43;1.30;99.90
74513;DHT22;62992;52.052;8.550;2023-01-28T00:15:27;1.20;99.90
74513;DHT22;62992;52.052;8.550;2023-01-28T00:18:11;1.30;99.90
74513;DHT22;62992;52.052;8.550;2023-01-28T00:23:53;1.30;99.90
74513;DHT22;62992;52.052;8.550;2023-01-28T00:26:38;1.30;99.90
74513;DHT22;62992;52.052;8.550;2023-01-28T00:29:22;1.30;99.90
74513;DHT22;62992;52.052;8.550;2023-01-28T00:32:06;1.30;99.90
74513;DHT22;62992;52.052;8.550;2023-01-28T00:34:50;1.30;99.90
74513;DHT22;62992;52.052;8.550;2023-01-28T00:37:34;1.30;99.90
74513;DHT22;62992;52.052;8.550;2023-01-28T00:40:20;1.30;99.90
74513;DHT22;62992;52.052;8.550;2023-01-28T00:43:04;1.30;99.90
74513;DHT22;62992;52.052;8.550;2023-01-28T00:45:48;1.40;99.90
74513;DHT22;62992;52.052;8.550;2023-01-28T00:48:36;1.30;99.90
74513;DHT22;62992;52.052;8.550;2023-01-28T00:51:21;1.30;99.90
74513;DHT22;62992;52.052;8.550;2023-01-28T00:54:06;1.30;99.90
74513;DHT22;62992;52.052;8.550;2023-01-28T00:56:50;1.20;99.90
74513;DHT22;62992;52.052;8.550;2023-01-28T00:59:36;1.20;99.90
74513;DHT22;62992;52.052;8.550;2023-01-28T01:02:20;1.20;99.90
74513;DHT22;62992;52.052;8.550;2023-01-28T01:05:05;1.20;99.90
74513;DHT22;62992;52.052;8.550;2023-01-28T01:07:49;1.30;99.90
74513;DHT22;62992;52.052;8.550;2023-01-28T01:10:33;1.20;99.90
74513;DHT22;62992;52.052;8.550;2023-01-28T01:13:17;1.20;99.90
74513;DHT22;62992;52.052;8.550;2023-01-28T01:16:13;1.20;99.90
74513;DHT22;62992;52.052;8.550;2023-01-28T01:18:59;1.10;99.90
74513;DHT22;62992;52.052;8.550;2023-01-28T01:21:43;1.20;99.90
74513;DHT22;62992;52.052;8.550;2023-01-28T01:24:27;1.20;99.90
74513;DHT22;62992;52.052;8.550;2023-01-28T01:27:17;1.20;99.90
74513;DHT22;62992;52.052;8.550;2023-01-28T01:30:01;1.20;99.90
74513;DHT22;62992;52.052;8.550;2023-01-28T01:32:45;1.20;99.90
74513;DHT22;62992;52.052;8.550;2023-01-28T01:35:29;1.20;99.90
74513;DHT22;62992;52.052;8.550;2023-01-28T01:38:13;1.20;99.90
74513;DHT22;62992;52.052;8.550;2023-01-28T01:40:58;1.20;99.90
74513;DHT22;62992;52.052;8.550;2023-01-28T01:46:38;1.20;99.90
74513;DHT22;62992;52.052;8.550;2023-01-28T01:49:26;1.20;99.90
74513;DHT22;62992;52.052;8.550;2023-01-28T01:52:14;1.30;99.90
74513;DHT22;62992;52.052;8.550;2023-01-28T01:55:00;1.30;99.90
74513;DHT22;62992;52.052;8.550;2023-01-28T01:57:47;1.30;99.90
74513;DHT22;62992;52.052;8.550;2023-01-28T02:00:32;1.20;99.90
74513;DHT22;62992;52.052;8.550;2023-01-28T02:03:20;1.20;99.90
74513;DHT22;62992;52.052;8.550;2023-01-28T02:06:05;1.10;99.90
74513;DHT22;62992;52.052;8.550;2023-01-28T02:08:53;1.20;99.90
74513;DHT22;62992;52.052;8.550;2023-01-28T02:11:38;1.20;99.90
74513;DHT22;62992;52.052;8.550;2023-01-28T02:14:25;1.20;99.90
74513;DHT22;62992;52.052;8.550;2023-01-28T02:17:11;1.20;99.90
74513;DHT22;62992;52.052;8.550;2023-01-28T02:20:06;1.20;99.90
74513;DHT22;62992;52.052;8.550;2023-01-28T02:22:57;1.20;99.90
74513;DHT22;62992;52.052;8.550;2023-01-28T02:37:50;1.20;99.90
74513;DHT22;62992;52.052;8.550;2023-01-28T02:40:38;1.20;99.90
74513;DHT22;62992;52.052;8.550;2023-01-28T02:43:46;1.20;99.90
74513;DHT22;62992;52.052;8.550;2023-01-28T03:01:41;1.10;99.90
74513;DHT22;62992;52.052;8.550;2023-01-28T03:04:31;1.10;99.90
74513;DHT22;62992;52.052;8.550;2023-01-28T03:10:57;1.10;99.90
74513;DHT22;62992;52.052;8.550;2023-01-28T03:14:01;1.10;99.90
74513;DHT22;62992;52.052;8.550;2023-01-28T03:17:07;1.10;99.90
74513;DHT22;62992;52.052;8.550;2023-01-28T03:20:11;1.10;99.90
74513;DHT22;62992;52.052;8.550;2023-01-28T03:23:21;1.10;99.90
74513;DHT22;62992;52.052;8.550;2023-01-28T03:26:26;1.10;99.90
74513;DHT22;62992;52.052;8.550;2023-01-28T03:29:32;1.10;99.90
74513;DHT22;62992;52.052;8.550;2023-01-28T03:32:37;1.10;99.90
74513;DHT22;62992;52.052;8.550;2023-01-28T03:35:41;1.10;99.90
74513;DHT22;62992;52.052;8.550;2023-01-28T03:38:44;1.10;99.90
74513;DHT22;62992;52.052;8.550;2023-01-28T03:41:31;1.10;99.90
74513;DHT22;62992;52.052;8.550;2023-01-28T03:44:15;1.10;99.90
74513;DHT22;62992;52.052;8.550;2023-01-28T03:47:21;1.00;99.90
74513;DHT22;62992;52.052;8.550;2023-01-28T03:50:06;1.00;99.90
74513;DHT22;62992;52.052;8.550;2023-01-28T03:52:50;1.00;99.90
74513;DHT22;62992;52.052;8.550;2023-01-28T03:55:34;1.00;99.90
74513;DHT22;62992;52.052;8.550;2023-01-28T03:58:19;1.10;99.90
74513;DHT22;62992;52.052;8.550;2023-01-28T04:01:04;1.10;99.90
74513;DHT22;62992;52.052;8.550;2023-01-28T04:03:48;1.10;99.90
74513;DHT22;62992;52.052;8.550;2023-01-28T04:06:32;1.10;99.90
74513;DHT22;62992;52.052;8.550;2023-01-28T04:09:16;1.10;99.90
74513;DHT22;62992;52.052;8.550;2023-01-28T04:12:00;1.00;99.90
74513;DHT22;62992;52.052;8.550;2023-01-28T04:14:45;1.00;99.90
74513;DHT22;62992;52.052;8.550;2023-01-28T04:17:29;1.00;99.90
74513;DHT22;62992;52.052;8.550;2023-01-28T04:20:14;1.00;99.90
74513;DHT22;62992;52.052;8.550;2023-01-28T04:22:58;1.00;99.90
74513;DHT22;62992;52.052;8.550;2023-01-28T04:25:42;1.00;99.90
74513;DHT22;62992;52.052;8.550;2023-01-28T04:28:26;1.00;99.90
74513;DHT22;62992;52.052;8.550;2023-01-28T04:31:10;1.00;99.90
74513;DHT22;62992;52.052;8.550;2023-01-28T04:33:54;1.00;99.90
74513;DHT22;62992;52.052;8.550;2023-01-28T04:36:39;1.00;99.90
74513;DHT22;62992;52.052;8.550;2023-01-28T04:39:23;1.00;99.90
74513;DHT22;62992;52.052;8.550;2023-01-28T04:42:07;1.00;99.90
74513;DHT22;62992;52.052;8.550;2023-01-28T04:44:51;0.90;99.90
74513;DHT22;62992;52.052;8.550;2023-01-28T04:47:35;1.00;99.90
74513;DHT22;62992;52.052;8.550;2023-01-28T04:50:19;1.00;99.90
74513;DHT22;62992;52.052;8.550;2023-01-28T04:53:03;1.00;99.90
74513;DHT22;62992;52.052;8.550;2023-01-28T04:55:47;0.90;99.90
74513;DHT22;62992;52.052;8.550;2023-01-28T04:58:31;1.00;99.90
74513;DHT22;62992;52.052;8.550;2023-01-28T05:01:15;1.00;99.90
74513;DHT22;62992;52.052;8.550;2023-01-28T05:03:59;0.90;99.90
74513;DHT22;62992;52.052;8.550;2023-01-28T05:06:48;0.90;99.90
74513;DHT22;62992;52.052;8.550;2023-01-28T05:09:32;0.80;99.90
74513;DHT22;62992;52.052;8.550;2023-01-28T05:12:16;0.80;99.90
74513;DHT22;62992;52.052;8.550;2023-01-28T05:15:00;0.90;99.90
74513;DHT22;62992;52.052;8.550;2023-01-28T05:17:45;0.90;99.90
74513;DHT22;62992;52.052;8.550;2023-01-28T05:20:29;0.90;99.90
74513;DHT22;62992;52.052;8.550;2023-01-28T05:23:13;0.90;99.90
74513;DHT22;62992;52.052;8.550;2023-01-28T05:25:58;0.90;99.90
74513;DHT22;62992;52.052;8.550;2023-01-28T05:28:42;0.90;99.90
74513;DHT22;62992;52.052;8.550;2023-01-28T05:31:26;0.90;99.90
74513;DHT22;62992;52.052;8.550;2023-01-28T05:34:10;0.80;99.90
74513;DHT22;62992;52.052;8.550;2023-01-28T05:36:54;0.80;99.90
74513;DHT22;62992;52.052;8.550;2023-01-28T05:39:38;0.80;99.90
74513;DHT22;62992;52.052;8.550;2023-01-28T05:42:22;0.80;99.90
74513;DHT22;62992;52.052;8.550;2023-01-28T05:45:07;0.80;99.90
74513;DHT22;62992;52.052;8.550;2023-01-28T05:47:52;0.80;99.90
74513;DHT22;62992;52.052;8.550;2023-01-28T05:50:36;0.80;99.90
74513;DHT22;62992;52.052;8.550;2023-01-28T05:53:20;0.70;99.90
74513;DHT22;62992;52.052;8.550;2023-01-28T05:56:05;0.80;99.90
74513;DHT22;62992;52.052;8.550;2023-01-28T05:58:49;0.80;99.90
74513;DHT22;62992;52.052;8.550;2023-01-28T06:01:33;0.80;99.90
74513;DHT22;62992;52.052;8.550;2023-01-28T06:04:17;0.80;99.90
74513;DHT22;62992;52.052;8.550;2023-01-28T06:07:02;0.80;99.90
74513;DHT22;62992;52.052;8.550;2023-01-28T06:09:46;0.80;99.90
74513;DHT22;62992;52.052;8.550;2023-01-28T06:12:31;0.80;99.90
74513;DHT22;62992;52.052;8.550;2023-01-28T06:15:15;0.80;99.90
74513;DHT22;62992;52.052;8.550;2023-01-28T06:17:59;0.70;99.90
74513;DHT22;62992;52.052;8.550;2023-01-28T06:20:43;0.70;99.90
74513;DHT22;62992;52.052;8.550;2023-01-28T06:23:27;0.70;99.90
74513;DHT22;62992;52.052;8.550;2023-01-28T06:26:11;0.70;99.90
74513;DHT22;62992;52.052;8.550;2023-01-28T06:28:55;0.60;99.90
74513;DHT22;62992;52.052;8.550;2023-01-28T06:31:39;0.60;99.90
74513;DHT22;62992;52.052;8.550;2023-01-28T06:34:23;0.60;99.90
74513;DHT22;62992;52.052;8.550;2023-01-28T06:37:11;0.70;99.90
74513;DHT22;62992;52.052;8.550;2023-01-28T06:39:55;0.70;99.90
74513;DHT22;62992;52.052;8.550;2023-01-28T06:42:39;0.60;99.90
74513;DHT22;62992;52.052;8.550;2023-01-28T06:45:23;0.60;99.90
74513;DHT22;62992;52.052;8.550;2023-01-28T06:48:07;0.70;99.90
74513;DHT22;62992;52.052;8.550;2023-01-28T06:50:52;0.60;99.90
74513;DHT22;62992;52.052;8.550;2023-01-28T06:53:36;0.60;99.90
74513;DHT22;62992;52.052;8.550;2023-01-28T06:56:20;0.60;99.90
74513;DHT22;62992;52.052;8.550;2023-01-28T06:59:04;0.60;99.90
74513;DHT22;62992;52.052;8.550;2023-01-28T07:01:48;0.60;99.90
74513;DHT22;62992;52.052;8.550;2023-01-28T07:04:32;0.60;99.90
74513;DHT22;62992;52.052;8.550;2023-01-28T07:07:16;0.60;99.90
74513;DHT22;62992;52.052;8.550;2023-01-28T07:10:00;0.50;99.90
74513;DHT22;62992;52.052;8.550;2023-01-28T07:12:44;0.50;99.90
74513;DHT22;62992;52.052;8.550;2023-01-28T07:15:29;0.60;99.90
74513;DHT22;62992;52.052;8.550;2023-01-28T07:18:13;0.60;99.90
74513;DHT22;62992;52.052;8.550;2023-01-28T07:20:57;0.60;99.90
74513;DHT22;62992;52.052;8.550;2023-01-28T07:23:41;0.60;99.90
74513;DHT22;62992;52.052;8.550;2023-01-28T07:26:25;0.60;99.90
74513;DHT22;62992;52.052;8.550;2023-01-28T07:29:09;0.60;99.90
74513;DHT22;62992;52.052;8.550;2023-01-28T07:31:53;0.70;99.90
74513;DHT22;62992;52.052;8.550;2023-01-28T07:34:37;0.70;99.90
74513;DHT22;62992;52.052;8.550;2023-01-28T07:37:24;0.70;99.90
74513;DHT22;62992;52.052;8.550;2023-01-28T07:40:09;0.60;99.90
74513;DHT22;62992;52.052;8.550;2023-01-28T07:42:53;0.70;99.90
74513;DHT22;62992;52.052;8.550;2023-01-28T07:45:39;0.70;99.90
74513;DHT22;62992;52.052;8.550;2023-01-28T07:48:23;0.70;99.90
74513;DHT22;62992;52.052;8.550;2023-01-28T07:51:07;0.70;99.90
74513;DHT22;62992;52.052;8.550;2023-01-28T07:53:51;0.80;99.90
74513;DHT22;62992;52.052;8.550;2023-01-28T07:56:35;0.70;99.90
74513;DHT22;62992;52.052;8.550;2023-01-28T07:59:19;0.70;99.90
74513;DHT22;62992;52.052;8.550;2023-01-28T08:02:03;0.70;99.90
74513;DHT22;62992;52.052;8.550;2023-01-28T08:04:47;0.80;99.90
74513;DHT22;62992;52.052;8.550;2023-01-28T08:07:31;0.80;99.90
74513;DHT22;62992;52.052;8.550;2023-01-28T08:10:16;0.80;99.90
74513;DHT22;62992;52.052;8.550;2023-01-28T08:13:01;0.70;99.90
74513;DHT22;62992;52.052;8.550;2023-01-28T08:15:45;0.80;99.90
74513;DHT22;62992;52.052;8.550;2023-01-28T08:18:30;0.80;99.90
74513;DHT22;62992;52.052;8.550;2023-01-28T08:21:14;0.80;99.90
74513;DHT22;62992;52.052;8.550;2023-01-28T08:23:58;0.80;99.90
74513;DHT22;62992;52.052;8.550;2023-01-28T08:26:42;0.90;99.90
74513;DHT22;62992;52.052;8.550;2023-01-28T08:29:27;0.90;99.90
74513;DHT22;62992;52.052;8.550;2023-01-28T08:32:11;0.90;99.90
74513;DHT22;62992;52.052;8.550;2023-01-28T08:34:55;0.90;99.90
74513;DHT22;62992;52.052;8.550;2023-01-28T08:37:40;1.00;99.90
74513;DHT22;62992;52.052;8.550;2023-01-28T08:40:24;1.00;99.90
74513;DHT22;62992;52.052;8.550;2023-01-28T08:43:08;1.00;99.90
74513;DHT22;62992;52.052;8.550;2023-01-28T08:45:52;1.00;99.90
74513;DHT22;62992;52.052;8.550;2023-01-28T08:48:36;1.00;99.90
74513;DHT22;62992;52.052;8.550;2023-01-28T08:51:21;1.00;99.90
74513;DHT22;62992;52.052;8.550;2023-01-28T08:54:05;1.00;99.90
74513;DHT22;62992;52.052;8.550;2023-01-28T08:56:49;1.00;99.90
74513;DHT22;62992;52.052;8.550;2023-01-28T08:59:34;0.90;99.90
74513;DHT22;62992;52.052;8.550;2023-01-28T09:02:18;0.90;99.90
74513;DHT22;62992;52.052;8.550;2023-01-28T09:05:03;0.90;99.90
74513;DHT22;62992;52.052;8.550;2023-01-28T09:07:48;0.90;99.90
74513;DHT22;62992;52.052;8.550;2023-01-28T09:10:33;1.00;99.90
74513;DHT22;62992;52.052;8.550;2023-01-28T09:13:17;1.00;99.90
74513;DHT22;62992;52.052;8.550;2023-01-28T09:16:04;1.00;99.90
74513;DHT22;62992;52.052;8.550;2023-01-28T09:18:49;1.10;99.90
74513;DHT22;62992;52.052;8.550;2023-01-28T09:21:34;1.10;99.90
74513;DHT22;62992;52.052;8.550;2023-01-28T09:24:18;1.10;99.90
74513;DHT22;62992;52.052;8.550;2023-01-28T09:27:02;1.10;99.90
74513;DHT22;62992;52.052;8.550;2023-01-28T09:29:46;1.10;99.90
74513;DHT22;62992;52.052;8.550;2023-01-28T09:32:30;1.00;99.90
74513;DHT22;62992;52.052;8.550;2023-01-28T09:35:14;0.90;99.90
74513;DHT22;62992;52.052;8.550;2023-01-28T09:37:59;0.90;99.90
74513;DHT22;62992;52.052;8.550;2023-01-28T09:40:44;0.90;99.90
74513;DHT22;62992;52.052;8.550;2023-01-28T09:46:42;0.90;99.90
74513;DHT22;62992;52.052;8.550;2023-01-28T09:49:36;1.00;99.90
74513;DHT22;62992;52.052;8.550;2023-01-28T09:52:23;1.00;99.90
74513;DHT22;62992;52.052;8.550;2023-01-28T09:55:12;1.00;99.90
74513;DHT22;62992;52.052;8.550;2023-01-28T09:57:58;1.00;99.90
74513;DHT22;62992;52.052;8.550;2023-01-28T10:01:05;1.00;99.90
74513;DHT22;62992;52.052;8.550;2023-01-28T10:07:41;1.10;99.90
74513;DHT22;62992;52.052;8.550;2023-01-28T10:10:26;1.20;99.90
74513;DHT22;62992;52.052;8.550;2023-01-28T10:13:45;1.20;99.90
74513;DHT22;62992;52.052;8.550;2023-01-28T10:16:44;1.30;99.90
74513;DHT22;62992;52.052;8.550;2023-01-28T10:19:33;1.30;99.90
74513;DHT22;62992;52.052;8.550;2023-01-28T10:22:29;1.40;99.90
74513;DHT22;62992;52.052;8.550;2023-01-28T10:25:19;1.30;99.90
74513;DHT22;62992;52.052;8.550;2023-01-28T10:28:25;1.30;99.90
74513;DHT22;62992;52.052;8.550;2023-01-28T10:31:13;1.30;99.90
74513;DHT22;62992;52.052;8.550;2023-01-28T10:33:58;1.30;99.90
74513;DHT22;62992;52.052;8.550;2023-01-28T10:36:42;1.30;99.90
74513;DHT22;62992;52.052;8.550;2023-01-28T10:39:27;1.40;99.90
74513;DHT22;62992;52.052;8.550;2023-01-28T10:48:41;1.30;99.90
74513;DHT22;62992;52.052;8.550;2023-01-28T10:51:39;1.30;99.90
74513;DHT22;62992;52.052;8.550;2023-01-28T10:54:26;1.40;99.90
74513;DHT22;62992;52.052;8.550;2023-01-28T10:57:13;1.20;99.90
74513;DHT22;62992;52.052;8.550;2023-01-28T11:03:15;1.20;99.90
74513;DHT22;62992;52.052;8.550;2023-01-28T11:05:59;1.20;99.90
74513;DHT22;62992;52.052;8.550;2023-01-28T11:08:44;1.30;99.90
74513;DHT22;62992;52.052;8.550;2023-01-28T11:11:28;1.10;99.90
74513;DHT22;62992;52.052;8.550;2023-01-28T11:14:21;1.30;99.90
74513;DHT22;62992;52.052;8.550;2023-01-28T11:17:15;1.30;99.90
74513;DHT22;62992;52.052;8.550;2023-01-28T11:20:10;1.30;99.90
74513;DHT22;62992;52.052;8.550;2023-01-28T11:22:55;1.30;99.90
74513;DHT22;62992;52.052;8.550;2023-01-28T11:25:40;1.40;99.90
74513;DHT22;62992;52.052;8.550;2023-01-28T11:28:25;1.40;99.90
74513;DHT22;62992;52.052;8.550;2023-01-28T11:31:14;1.40;99.90
74513;DHT22;62992;52.052;8.550;2023-01-28T11:34:00;1.40;99.90
74513;DHT22;62992;52.052;8.550;2023-01-28T11:37:03;1.40;99.90
74513;DHT22;62992;52.052;8.550;2023-01-28T11:39:59;1.40;99.90
74513;DHT22;62992;52.052;8.550;2023-01-28T11:42:43;1.60;99.90
74513;DHT22;62992;52.052;8.550;2023-01-28T11:48:26;1.70;99.90
74513;DHT22;62992;52.052;8.550;2023-01-28T11:51:45;1.50;99.90
74513;DHT22;62992;52.052;8.550;2023-01-28T11:57:20;2.00;99.90
74513;DHT22;62992;52.052;8.550;2023-01-28T12:03:38;2.10;99.90
74513;DHT22;62992;52.052;8.550;2023-01-28T12:06:54;1.70;99.90
74513;DHT22;62992;52.052;8.550;2023-01-28T12:13:21;1.60;99.90
74513;DHT22;62992;52.052;8.550;2023-01-28T12:16:38;1.60;99.90
74513;DHT22;62992;52.052;8.550;2023-01-28T12:22:46;1.60;99.90
74513;DHT22;62992;52.052;8.550;2023-01-28T12:25:36;1.60;99.90
74513;DHT22;62992;52.052;8.550;2023-01-28T12:34:23;1.60;99.90
74513;DHT22;62992;52.052;8.550;2023-01-28T12:37:44;1.90;99.90
74513;DHT22;62992;52.052;8.550;2023-01-28T12:41:04;1.60;99.90
74513;DHT22;62992;52.052;8.550;2023-01-28T12:43:58;1.60;99.90
74513;DHT22;62992;52.052;8.550;2023-01-28T12:49:43;1.60;99.90
74513;DHT22;62992;52.052;8.550;2023-01-28T12:52:37;1.60;99.90
74513;DHT22;62992;52.052;8.550;2023-01-28T12:55:46;1.60;99.90
74513;DHT22;62992;52.052;8.550;2023-01-28T12:58:39;1.60;99.90
74513;DHT22;62992;52.052;8.550;2023-01-28T13:05:04;1.70;99.90
74513;DHT22;62992;52.052;8.550;2023-01-28T13:10:41;1.60;99.90
74513;DHT22;62992;52.052;8.550;2023-01-28T13:13:28;1.70;99.90
74513;DHT22;62992;52.052;8.550;2023-01-28T13:16:13;1.90;99.90
74513;DHT22;62992;52.052;8.550;2023-01-28T13:19:37;1.90;99.90
74513;DHT22;62992;52.052;8.550;2023-01-28T13:25:31;1.80;99.90
74513;DHT22;62992;52.052;8.550;2023-01-28T13:28:31;1.70;99.90
74513;DHT22;62992;52.052;8.550;2023-01-28T13:31:17;1.60;99.90
74513;DHT22;62992;52.052;8.550;2023-01-28T13:34:03;1.70;99.90
74513;DHT22;62992;52.052;8.550;2023-01-28T13:36:48;1.90;99.90
74513;DHT22;62992;52.052;8.550;2023-01-28T13:39:34;1.90;99.90
74513;DHT22;62992;52.052;8.550;2023-01-28T13:42:24;2.10;99.90
74513;DHT22;62992;52.052;8.550;2023-01-28T13:50:56;2.10;99.90
74513;DHT22;62992;52.052;8.550;2023-01-28T13:53:46;2.10;99.90
74513;DHT22;62992;52.052;8.550;2023-01-28T14:09:20;1.90;99.90
74513;DHT22;62992;52.052;8.550;2023-01-28T14:18:34;1.60;99.90
74513;DHT22;62992;52.052;8.550;2023-01-28T14:21:20;1.60;99.90
74513;DHT22;62992;52.052;8.550;2023-01-28T14:24:13;1.50;99.90
74513;DHT22;62992;52.052;8.550;2023-01-28T14:27:17;1.50;99.90
74513;DHT22;62992;52.052;8.550;2023-01-28T14:33:01;1.60;99.90
74513;DHT22;62992;52.052;8.550;2023-01-28T14:35:47;1.50;99.90
74513;DHT22;62992;52.052;8.550;2023-01-28T14:38:40;1.50;99.90
74513;DHT22;62992;52.052;8.550;2023-01-28T14:41:26;1.60;99.90
74513;DHT22;62992;52.052;8.550;2023-01-28T14:53:30;1.50;99.90
74513;DHT22;62992;52.052;8.550;2023-01-28T14:59:46;1.40;99.90
74513;DHT22;62992;52.052;8.550;2023-01-28T15:02:32;1.40;99.90
74513;DHT22;62992;52.052;8.550;2023-01-28T15:05:22;1.30;99.90
74513;DHT22;62992;52.052;8.550;2023-01-28T15:08:07;1.20;99.90
74513;DHT22;62992;52.052;8.550;2023-01-28T15:10:52;1.10;99.90
74513;DHT22;62992;52.052;8.550;2023-01-28T15:13:45;1.10;99.90
74513;DHT22;62992;52.052;8.550;2023-01-28T15:16:30;1.10;99.90
74513;DHT22;62992;52.052;8.550;2023-01-28T15:19:15;1.10;99.90
74513;DHT22;62992;52.052;8.550;2023-01-28T15:22:07;1.10;99.90
74513;DHT22;62992;52.052;8.550;2023-01-28T15:24:52;1.00;99.90
74513;DHT22;62992;52.052;8.550;2023-01-28T15:27:36;1.00;99.90
74513;DHT22;62992;52.052;8.550;2023-01-28T15:30:23;1.00;99.90
74513;DHT22;62992;52.052;8.550;2023-01-28T15:33:15;1.00;99.90
74513;DHT22;62992;52.052;8.550;2023-01-28T15:36:00;0.90;99.90
74513;DHT22;62992;52.052;8.550;2023-01-28T15:38:44;0.90;99.90
74513;DHT22;62992;52.052;8.550;2023-01-28T15:41:32;0.90;99.90
74513;DHT22;62992;52.052;8.550;2023-01-28T15:47:23;0.80;99.90
74513;DHT22;62992;52.052;8.550;2023-01-28T15:50:18;0.70;99.90
74513;DHT22;62992;52.052;8.550;2023-01-28T15:53:07;0.60;99.90
74513;DHT22;62992;52.052;8.550;2023-01-28T15:56:03;0.50;99.90
74513;DHT22;62992;52.052;8.550;2023-01-28T15:58:48;0.40;99.90
74513;DHT22;62992;52.052;8.550;2023-01-28T16:01:32;0.50;99.90
74513;DHT22;62992;52.052;8.550;2023-01-28T16:04:28;0.50;99.90
74513;DHT22;62992;52.052;8.550;2023-01-28T16:07:12;0.50;99.90
74513;DHT22;62992;52.052;8.550;2023-01-28T16:09:59;0.50;99.90
74513;DHT22;62992;52.052;8.550;2023-01-28T16:12:50;0.30;99.90
74513;DHT22;62992;52.052;8.550;2023-01-28T16:15:36;0.20;99.90
74513;DHT22;62992;52.052;8.550;2023-01-28T16:18:28;0.20;99.90
74513;DHT22;62992;52.052;8.550;2023-01-28T16:21:19;0.10;99.90
74513;DHT22;62992;52.052;8.550;2023-01-28T16:24:25;0.10;99.90
74513;DHT22;62992;52.052;8.550;2023-01-28T16:27:23;0.00;99.90
74513;DHT22;62992;52.052;8.550;2023-01-28T16:30:09;0.00;99.90
74513;DHT22;62992;52.052;8.550;2023-01-28T16:32:54;0.00;99.90
74513;DHT22;62992;52.052;8.550;2023-01-28T16:35:38;0.00;99.90
74513;DHT22;62992;52.052;8.550;2023-01-28T16:38:22;0.00;99.90
74513;DHT22;62992;52.052;8.550;2023-01-28T16:41:42;-0.10;99.90
74513;DHT22;62992;52.052;8.550;2023-01-28T16:44:27;-0.10;99.90
74513;DHT22;62992;52.052;8.550;2023-01-28T16:47:11;0.00;99.90
74513;DHT22;62992;52.052;8.550;2023-01-28T16:49:55;0.10;99.90
74513;DHT22;62992;52.052;8.550;2023-01-28T16:52:41;0.00;99.90
74513;DHT22;62992;52.052;8.550;2023-01-28T16:55:26;0.00;99.90
74513;DHT22;62992;52.052;8.550;2023-01-28T16:58:10;0.10;99.90
74513;DHT22;62992;52.052;8.550;2023-01-28T17:00:54;0.00;99.90
74513;DHT22;62992;52.052;8.550;2023-01-28T17:03:39;-0.10;99.90
74513;DHT22;62992;52.052;8.550;2023-01-28T17:06:23;-0.20;99.90
74513;DHT22;62992;52.052;8.550;2023-01-28T17:09:08;-0.20;99.90
74513;DHT22;62992;52.052;8.550;2023-01-28T17:11:52;-0.20;99.90
74513;DHT22;62992;52.052;8.550;2023-01-28T17:14:36;-0.30;99.90
74513;DHT22;62992;52.052;8.550;2023-01-28T17:17:21;-0.30;99.90
74513;DHT22;62992;52.052;8.550;2023-01-28T17:20:06;-0.30;99.90
74513;DHT22;62992;52.052;8.550;2023-01-28T17:22:51;-0.30;99.90
74513;DHT22;62992;52.052;8.550;2023-01-28T17:25:37;-0.30;99.90
74513;DHT22;62992;52.052;8.550;2023-01-28T17:28:22;-0.40;99.90
74513;DHT22;62992;52.052;8.550;2023-01-28T17:31:07;-0.40;99.90
74513;DHT22;62992;52.052;8.550;2023-01-28T17:33:53;-0.40;99.90
74513;DHT22;62992;52.052;8.550;2023-01-28T17:36:37;-0.50;99.90
74513;DHT22;62992;52.052;8.550;2023-01-28T17:39:21;-0.50;99.90
74513;DHT22;62992;52.052;8.550;2023-01-28T17:42:06;-0.50;99.90
74513;DHT22;62992;52.052;8.550;2023-01-28T17:44:50;-0.50;99.90
74513;DHT22;62992;52.052;8.550;2023-01-28T17:47:34;-0.50;99.90
74513;DHT22;62992;52.052;8.550;2023-01-28T17:50:18;-0.50;99.90
74513;DHT22;62992;52.052;8.550;2023-01-28T17:53:02;-0.50;99.90
74513;DHT22;62992;52.052;8.550;2023-01-28T17:55:46;-0.50;99.90
74513;DHT22;62992;52.052;8.550;2023-01-28T17:58:30;-0.40;99.90
74513;DHT22;62992;52.052;8.550;2023-01-28T18:01:14;-0.40;99.90
74513;DHT22;62992;52.052;8.550;2023-01-28T18:03:59;-0.50;99.90
74513;DHT22;62992;52.052;8.550;2023-01-28T18:06:43;-0.60;99.90
74513;DHT22;62992;52.052;8.550;2023-01-28T18:09:28;-0.60;99.90
74513;DHT22;62992;52.052;8.550;2023-01-28T18:12:14;-0.60;99.90
74513;DHT22;62992;52.052;8.550;2023-01-28T18:14:58;-0.60;99.90
74513;DHT22;62992;52.052;8.550;2023-01-28T18:17:42;-0.60;99.90
74513;DHT22;62992;52.052;8.550;2023-01-28T18:20:26;-0.60;99.90
74513;DHT22;62992;52.052;8.550;2023-01-28T18:23:11;-0.70;99.90
74513;DHT22;62992;52.052;8.550;2023-01-28T18:25:56;-0.70;99.90
74513;DHT22;62992;52.052;8.550;2023-01-28T18:28:40;-0.70;99.90
74513;DHT22;62992;52.052;8.550;2023-01-28T18:31:24;-0.70;99.90
74513;DHT22;62992;52.052;8.550;2023-01-28T18:34:08;-0.70;99.90
74513;DHT22;62992;52.052;8.550;2023-01-28T18:36:52;-0.70;99.90
74513;DHT22;62992;52.052;8.550;2023-01-28T18:39:36;-0.80;99.90
74513;DHT22;62992;52.052;8.550;2023-01-28T18:42:22;-0.80;99.90
74513;DHT22;62992;52.052;8.550;2023-01-28T18:45:06;-0.90;99.90
74513;DHT22;62992;52.052;8.550;2023-01-28T18:47:51;-0.90;99.90
74513;DHT22;62992;52.052;8.550;2023-01-28T18:50:34;-0.80;99.90
74513;DHT22;62992;52.052;8.550;2023-01-28T18:53:19;-0.80;99.90
74513;DHT22;62992;52.052;8.550;2023-01-28T18:56:05;-0.80;99.90
74513;DHT22;62992;52.052;8.550;2023-01-28T18:58:57;-0.80;99.90
74513;DHT22;62992;52.052;8.550;2023-01-28T19:01:42;-0.80;99.90
74513;DHT22;62992;52.052;8.550;2023-01-28T19:04:27;-0.80;99.90
74513;DHT22;62992;52.052;8.550;2023-01-28T19:07:10;-0.80;99.90
74513;DHT22;62992;52.052;8.550;2023-01-28T19:09:54;-0.80;99.90
74513;DHT22;62992;52.052;8.550;2023-01-28T19:12:38;-0.80;99.90
74513;DHT22;62992;52.052;8.550;2023-01-28T19:15:23;-0.80;99.90
74513;DHT22;62992;52.052;8.550;2023-01-28T19:18:07;-0.80;99.90
74513;DHT22;62992;52.052;8.550;2023-01-28T19:20:51;-0.90;99.90
74513;DHT22;62992;52.052;8.550;2023-01-28T19:23:35;-0.80;99.90
74513;DHT22;62992;52.052;8.550;2023-01-28T19:26:20;-0.90;99.90
74513;DHT22;62992;52.052;8.550;2023-01-28T19:29:06;-0.80;99.90
74513;DHT22;62992;52.052;8.550;2023-01-28T19:31:52;-0.80;99.90
74513;DHT22;62992;52.052;8.550;2023-01-28T19:34:36;-0.90;99.90
74513;DHT22;62992;52.052;8.550;2023-01-28T19:37:21;-0.90;99.90
74513;DHT22;62992;52.052;8.550;2023-01-28T19:40:06;-0.90;99.90
74513;DHT22;62992;52.052;8.550;2023-01-28T19:42:53;-1.00;99.90
74513;DHT22;62992;52.052;8.550;2023-01-28T19:45:37;-0.90;99.90
74513;DHT22;62992;52.052;8.550;2023-01-28T19:48:22;-1.00;99.90
74513;DHT22;62992;52.052;8.550;2023-01-28T19:51:08;-1.00;99.90
74513;DHT22;62992;52.052;8.550;2023-01-28T19:53:53;-1.00;99.90
74513;DHT22;62992;52.052;8.550;2023-01-28T19:56:37;-1.00;99.90
74513;DHT22;62992;52.052;8.550;2023-01-28T19:59:21;-1.00;99.90
74513;DHT22;62992;52.052;8.550;2023-01-28T20:02:05;-1.00;99.90